createdAt,value
2024-03-06T00:01:14.946Z,99446.00
2024-03-06T00:02:47.123Z,99445.00
2024-03-06T00:04:20.461Z,99445.00
2024-03-06T00:05:52.771Z,99444.00
2024-03-06T00:07:25.961Z,99447.00
2024-03-06T00:08:59.551Z,99449.00
2024-03-06T00:10:32.997Z,99447.00
2024-03-06T00:12:07.271Z,99451.00
2024-03-06T00:13:40.456Z,99457.00
2024-03-06T00:15:12.637Z,99448.00
2024-03-06T00:16:45.836Z,99460.00
2024-03-06T00:18:18.344Z,99459.00
2024-03-06T00:20:00.411Z,99456.00
2024-03-06T00:21:32.765Z,99464.00
2024-03-06T00:23:06.576Z,99470.00
2024-03-06T00:24:40.169Z,99453.00
2024-03-06T00:26:13.830Z,99467.00
2024-03-06T00:27:46.198Z,99471.00
2024-03-06T00:29:19.420Z,99468.00
2024-03-06T00:30:51.820Z,99471.00
2024-03-06T00:32:25.155Z,99470.00
2024-03-06T00:33:57.343Z,99471.00
2024-03-06T00:35:31.008Z,99478.00
2024-03-06T00:37:03.477Z,99483.00
2024-03-06T00:38:36.572Z,99489.00
2024-03-06T00:40:12.527Z,99491.00
2024-03-06T00:41:45.650Z,99490.00
2024-03-06T00:43:17.878Z,99494.00
2024-03-06T00:44:50.961Z,99486.00
2024-03-06T00:46:23.439Z,99488.00
2024-03-06T00:47:56.824Z,99498.00
2024-03-06T00:49:29.041Z,99487.00
2024-03-06T00:51:02.161Z,99489.00
2024-03-06T00:52:34.633Z,99494.00
2024-03-06T00:54:07.830Z,99498.00
2024-03-06T00:55:41.568Z,99494.00
2024-03-06T00:57:14.649Z,99491.00
2024-03-06T00:58:46.944Z,99492.00
2024-03-06T01:00:22.295Z,99499.00
2024-03-06T01:01:57.153Z,99499.00
2024-03-06T01:03:30.541Z,99497.00
2024-03-06T01:05:05.062Z,99496.00
2024-03-06T01:06:38.302Z,99500.00
2024-03-06T01:08:10.611Z,99505.00
2024-03-06T01:09:44.179Z,99500.00
2024-03-06T01:11:17.984Z,99498.00
2024-03-06T01:12:51.193Z,99495.00
2024-03-06T01:14:24.492Z,99506.00
2024-03-06T01:15:56.634Z,99497.00
2024-03-06T01:17:29.975Z,99502.00
2024-03-06T01:19:02.328Z,99500.00
2024-03-06T01:20:35.636Z,99498.00
2024-03-06T01:22:08.080Z,99510.00
2024-03-06T01:23:41.176Z,99512.00
2024-03-06T01:25:13.516Z,99506.00
2024-03-06T01:26:48.030Z,99516.00
2024-03-06T01:28:20.278Z,99514.00
2024-03-06T01:29:53.663Z,99509.00
2024-03-06T01:31:25.893Z,99509.00
2024-03-06T01:32:59.245Z,99513.00
2024-03-06T01:34:31.475Z,99517.00
2024-03-06T01:36:04.966Z,99514.00
2024-03-06T01:37:37.174Z,99520.00
2024-03-06T01:39:10.762Z,99510.00
2024-03-06T01:40:45.689Z,99513.00
2024-03-06T01:42:20.537Z,99517.00
2024-03-06T01:43:53.042Z,99512.00
2024-03-06T01:45:26.509Z,99519.00
2024-03-06T01:46:58.680Z,99514.00
2024-03-06T01:48:33.323Z,99515.00
2024-03-06T01:50:10.167Z,99518.00
2024-03-06T01:51:47.028Z,99526.00
2024-03-06T01:53:20.073Z,99523.00
2024-03-06T01:54:54.386Z,99521.00
2024-03-06T01:56:27.935Z,99522.00
2024-03-06T01:58:02.836Z,99518.00
2024-03-06T01:59:37.155Z,99529.00
2024-03-06T02:01:11.690Z,99519.00
2024-03-06T02:02:44.640Z,99532.00
2024-03-06T02:04:19.607Z,99522.00
2024-03-06T02:05:55.049Z,99529.00
2024-03-06T02:07:29.653Z,99525.00
2024-03-06T02:09:04.165Z,99523.00
2024-03-06T02:10:37.253Z,99530.00
2024-03-06T02:12:10.952Z,99522.00
2024-03-06T02:13:45.989Z,99518.00
2024-03-06T02:15:19.089Z,99523.00
2024-03-06T02:16:52.320Z,99520.00
2024-03-06T02:18:24.512Z,99519.00
2024-03-06T02:19:59.558Z,99526.00
2024-03-06T02:21:33.066Z,99523.00
2024-03-06T02:23:06.454Z,99523.00
2024-03-06T02:24:40.749Z,99526.00
2024-03-06T02:26:14.228Z,99526.00
2024-03-06T02:27:49.208Z,99528.00
2024-03-06T02:29:24.782Z,99526.00
2024-03-06T02:30:58.706Z,99525.00
2024-03-06T02:32:31.755Z,99522.00
2024-03-06T02:34:07.382Z,99529.00
2024-03-06T02:35:41.107Z,99527.00
2024-03-06T02:37:15.873Z,99514.00
2024-03-06T02:38:48.267Z,99517.00
2024-03-06T02:40:22.175Z,99518.00
2024-03-06T02:41:54.413Z,99526.00
2024-03-06T02:43:27.780Z,99521.00
2024-03-06T02:44:59.995Z,99516.00
2024-03-06T02:46:33.676Z,99519.00
2024-03-06T02:48:08.534Z,99519.00
2024-03-06T02:49:41.601Z,99519.00
2024-03-06T02:51:20.536Z,99518.00
2024-03-06T02:52:55.038Z,99518.00
2024-03-06T02:54:27.300Z,99517.00
2024-03-06T02:56:00.525Z,99518.00
2024-03-06T02:57:33.036Z,99520.00
2024-03-06T02:59:06.264Z,99521.00
2024-03-06T03:00:42.239Z,99519.00
2024-03-06T03:02:15.458Z,99522.00
2024-03-06T03:03:48.288Z,99529.00
2024-03-06T03:05:21.445Z,99530.00
2024-03-06T03:06:53.698Z,99519.00
2024-03-06T03:08:28.249Z,99534.00
2024-03-06T03:10:00.671Z,99533.00
2024-03-06T03:11:33.946Z,99548.00
2024-03-06T03:13:06.566Z,99540.00
2024-03-06T03:14:39.818Z,99536.00
2024-03-06T03:16:19.136Z,99537.00
2024-03-06T03:17:52.535Z,99537.00
2024-03-06T03:19:25.865Z,99543.00
2024-03-06T03:20:58.199Z,99546.00
2024-03-06T03:22:31.326Z,99539.00
2024-03-06T03:24:06.948Z,99543.00
2024-03-06T03:25:39.625Z,99550.00
2024-03-06T03:27:13.154Z,99545.00
2024-03-06T03:28:46.079Z,99554.00
2024-03-06T03:30:22.548Z,99551.00
2024-03-06T03:31:54.885Z,99551.00
2024-03-06T03:33:28.224Z,99551.00
2024-03-06T03:35:00.484Z,99549.00
2024-03-06T03:36:34.201Z,99549.00
2024-03-06T03:38:06.489Z,99549.00
2024-03-06T03:39:40.980Z,99551.00
2024-03-06T03:41:15.370Z,99552.00
2024-03-06T03:42:47.680Z,99560.00
2024-03-06T03:44:21.256Z,99560.00
2024-03-06T03:45:53.457Z,99557.00
2024-03-06T03:47:26.652Z,99568.00
2024-03-06T03:48:58.789Z,99565.00
2024-03-06T03:50:31.982Z,99560.00
2024-03-06T03:52:05.462Z,99569.00
2024-03-06T03:53:37.686Z,99572.00
2024-03-06T03:55:12.757Z,99567.00
2024-03-06T03:56:45.309Z,99572.00
2024-03-06T03:58:18.384Z,99575.00
2024-03-06T03:59:52.370Z,99576.00
2024-03-06T04:01:25.730Z,99584.00
2024-03-06T04:02:57.986Z,99581.00
2024-03-06T04:04:31.124Z,99568.00
2024-03-06T04:06:03.514Z,99570.00
2024-03-06T04:07:37.444Z,99574.00
2024-03-06T04:09:10.980Z,99580.00
2024-03-06T04:10:46.098Z,99577.00
2024-03-06T04:12:19.633Z,99583.00
2024-03-06T04:13:52.072Z,99578.00
2024-03-06T04:15:25.211Z,99591.00
2024-03-06T04:16:57.462Z,99589.00
2024-03-06T04:18:32.397Z,99591.00
2024-03-06T04:20:07.292Z,99595.00
2024-03-06T04:21:43.533Z,99598.00
2024-03-06T04:23:15.831Z,99595.00
2024-03-06T04:24:49.092Z,99592.00
2024-03-06T04:26:22.692Z,99601.00
2024-03-06T04:27:55.854Z,99599.00
2024-03-06T04:29:28.171Z,99604.00
2024-03-06T04:31:01.514Z,99597.00
2024-03-06T04:32:34.009Z,99610.00
2024-03-06T04:34:07.396Z,99598.00
2024-03-06T04:35:39.723Z,99611.00
2024-03-06T04:37:12.941Z,99609.00
2024-03-06T04:38:45.078Z,99618.00
2024-03-06T04:40:19.390Z,99613.00
2024-03-06T04:41:53.056Z,99622.00
2024-03-06T04:43:26.444Z,99622.00
2024-03-06T04:44:58.568Z,99624.00
2024-03-06T04:46:31.957Z,99618.00
2024-03-06T04:48:04.711Z,99616.00
2024-03-06T04:49:37.996Z,99622.00
2024-03-06T04:51:10.961Z,99635.00
2024-03-06T04:52:46.003Z,99640.00
2024-03-06T04:54:18.296Z,99635.00
2024-03-06T04:55:51.735Z,99636.00
2024-03-06T04:57:25.375Z,99640.00
2024-03-06T04:59:03.740Z,99636.00
2024-03-06T05:00:35.927Z,99633.00
2024-03-06T05:02:09.987Z,99641.00
2024-03-06T05:59:19.239Z,99691.00
2024-03-06T06:00:51.844Z,99683.00
2024-03-06T06:02:26.420Z,99688.00
2024-03-06T06:04:03.156Z,99696.00
2024-03-06T06:05:38.137Z,99696.00
2024-03-06T06:07:10.450Z,99703.00
2024-03-06T06:08:45.137Z,99704.00
2024-03-06T06:10:20.806Z,99704.00
2024-03-06T06:11:55.401Z,99697.00
2024-03-06T06:13:27.857Z,99710.00
2024-03-06T06:15:01.251Z,99708.00
2024-03-06T06:16:37.830Z,99715.00
2024-03-06T06:18:12.343Z,99703.00
2024-03-06T06:19:44.933Z,99713.00
2024-03-06T06:21:19.503Z,99712.00
2024-03-06T06:22:52.110Z,99707.00
2024-03-06T06:24:25.219Z,99706.00
2024-03-06T06:25:57.620Z,99713.00
2024-03-06T06:27:31.015Z,99730.00
2024-03-06T06:29:03.836Z,99712.00
2024-03-06T06:30:36.909Z,99718.00
2024-03-06T06:32:09.271Z,99716.00
2024-03-06T06:33:46.661Z,99711.00
2024-03-06T06:35:19.131Z,99724.00
2024-03-06T06:36:53.835Z,99722.00
2024-03-06T06:38:26.049Z,99731.00
2024-03-06T06:40:00.663Z,99729.00
2024-03-06T06:41:34.146Z,99731.00
2024-03-06T06:43:06.382Z,99741.00
2024-03-06T06:44:39.576Z,99743.00
2024-03-06T06:46:11.922Z,99739.00
2024-03-06T06:47:54.590Z,99744.00
2024-03-06T06:49:35.412Z,99741.00
2024-03-06T06:51:07.679Z,99750.00
2024-03-06T06:52:41.258Z,99753.00
2024-03-06T06:54:13.545Z,99769.00
2024-03-06T06:55:47.033Z,99758.00
2024-03-06T06:57:20.899Z,99757.00
2024-03-06T06:58:54.406Z,99757.00
2024-03-06T07:00:26.641Z,99766.00
2024-03-06T07:02:00.555Z,99764.00
2024-03-06T07:03:32.718Z,99772.00
2024-03-06T07:05:09.724Z,99774.00
2024-03-06T07:06:42.964Z,99763.00
2024-03-06T07:08:15.338Z,99768.00
2024-03-06T07:09:48.750Z,99775.00
2024-03-06T07:11:21.721Z,99774.00
2024-03-06T07:12:54.976Z,99773.00
2024-03-06T07:14:27.350Z,99773.00
2024-03-06T07:16:00.553Z,99770.00
2024-03-06T07:17:33.008Z,99776.00
2024-03-06T07:19:06.268Z,99786.00
2024-03-06T07:20:42.382Z,99776.00
2024-03-06T07:22:15.738Z,99780.00
2024-03-06T07:23:48.156Z,99787.00
2024-03-06T07:25:22.110Z,99783.00
2024-03-06T07:26:54.672Z,99787.00
2024-03-06T07:28:28.309Z,99778.00
2024-03-06T07:30:00.677Z,99790.00
2024-03-06T07:31:34.125Z,99782.00
2024-03-06T07:33:06.743Z,99794.00
2024-03-06T07:34:39.897Z,99792.00
2024-03-06T07:36:14.470Z,99795.00
2024-03-06T07:37:46.694Z,99796.00
2024-03-06T07:39:22.109Z,99799.00
2024-03-06T07:40:55.537Z,99806.00
2024-03-06T07:42:28.091Z,99800.00
2024-03-06T07:44:01.593Z,99801.00
2024-03-06T07:45:33.792Z,99809.00
2024-03-06T07:47:07.829Z,99800.00
2024-03-06T07:48:43.124Z,99800.00
2024-03-06T07:50:19.959Z,99803.00
2024-03-06T07:51:54.586Z,99817.00
2024-03-06T07:53:27.750Z,99808.00
2024-03-06T07:55:00.055Z,99812.00
2024-03-06T07:56:33.266Z,99811.00
2024-03-06T07:58:06.108Z,99809.00
2024-03-06T07:59:39.297Z,99823.00
2024-03-06T08:01:12.161Z,99820.00
2024-03-06T08:02:45.422Z,99818.00
2024-03-06T08:04:18.557Z,99825.00
2024-03-06T08:05:53.473Z,99826.00
2024-03-06T08:07:28.183Z,99818.00
2024-03-06T08:09:03.692Z,99820.00
2024-03-06T08:10:36.103Z,99830.00
2024-03-06T08:12:10.174Z,99826.00
2024-03-06T08:13:42.934Z,99835.00
2024-03-06T08:15:16.916Z,99839.00
2024-03-06T08:16:49.350Z,99845.00
2024-03-06T08:18:22.538Z,99841.00
2024-03-06T08:19:54.974Z,99842.00
2024-03-06T08:21:29.037Z,99859.00
2024-03-06T08:23:03.769Z,99848.00
2024-03-06T08:24:36.176Z,99856.00
2024-03-06T08:26:09.239Z,99855.00
2024-03-06T08:27:43.183Z,99857.00
2024-03-06T08:29:16.655Z,99849.00
2024-03-06T08:30:48.846Z,99849.00
2024-03-06T08:32:22.036Z,99851.00
2024-03-06T08:33:55.428Z,99852.00
2024-03-06T08:35:27.783Z,99865.00
2024-03-06T08:37:01.035Z,99861.00
2024-03-06T08:38:34.887Z,99867.00
2024-03-06T08:40:11.468Z,99867.00
2024-03-06T08:41:44.696Z,99863.00
2024-03-06T08:43:17.042Z,99868.00
2024-03-06T08:44:50.543Z,99861.00
2024-03-06T08:46:22.749Z,99859.00
2024-03-06T08:47:55.973Z,99873.00
2024-03-06T08:49:29.092Z,99872.00
2024-03-06T08:51:01.417Z,99868.00
2024-03-06T08:52:35.696Z,99869.00
2024-03-06T08:54:14.258Z,99865.00
2024-03-06T08:55:46.952Z,99867.00
2024-03-06T08:57:22.336Z,99874.00
2024-03-06T08:58:55.901Z,99874.00
2024-03-06T09:00:29.211Z,99869.00
2024-03-06T09:02:14.811Z,99877.00
2024-03-06T09:03:47.991Z,99870.00
2024-03-06T09:05:21.492Z,99877.00
2024-03-06T09:06:54.748Z,99876.00
2024-03-06T09:08:26.934Z,99880.00
2024-03-06T09:10:01.510Z,99874.00
2024-03-06T09:11:34.313Z,99878.00
2024-03-06T09:13:07.677Z,99874.00
2024-03-06T09:14:40.925Z,99876.00
2024-03-06T09:16:14.106Z,99879.00
2024-03-06T09:17:48.641Z,99878.00
2024-03-06T09:19:20.879Z,99882.00
2024-03-06T09:20:54.053Z,99874.00
2024-03-06T09:22:26.621Z,99882.00
2024-03-06T09:23:59.726Z,99880.00
2024-03-06T09:25:34.389Z,99886.00
2024-03-06T09:27:06.551Z,99892.00
2024-03-06T09:28:41.945Z,99878.00
2024-03-06T09:30:16.691Z,99879.00
2024-03-06T09:31:50.507Z,99886.00
2024-03-06T09:33:23.845Z,99883.00
2024-03-06T09:34:56.988Z,99873.00
2024-03-06T09:36:29.340Z,99887.00
2024-03-06T09:38:02.786Z,99885.00
2024-03-06T09:39:36.613Z,99885.00
2024-03-06T09:41:11.664Z,99888.00
2024-03-06T09:42:45.265Z,99894.00
2024-03-06T09:44:19.459Z,99898.00
2024-03-06T09:45:53.523Z,99887.00
2024-03-06T09:47:33.563Z,99885.00
2024-03-06T09:49:09.345Z,99890.00
2024-03-06T09:50:47.628Z,99901.00
2024-03-06T09:52:20.268Z,99901.00
2024-03-06T09:53:54.357Z,99904.00
2024-03-06T09:55:27.241Z,99892.00
2024-03-06T09:57:02.647Z,99896.00
2024-03-06T09:58:34.968Z,99895.00
2024-03-06T10:00:12.995Z,99894.00
2024-03-06T10:01:52.063Z,99901.00
2024-03-06T10:03:25.179Z,99890.00
2024-03-06T10:04:58.531Z,99890.00
2024-03-06T10:06:33.198Z,99894.00
2024-03-06T10:08:07.061Z,99895.00
2024-03-06T10:09:41.871Z,99895.00
2024-03-06T10:11:14.428Z,99894.00
2024-03-06T10:12:49.691Z,99904.00
2024-03-06T10:14:22.940Z,99896.00
2024-03-06T10:16:01.189Z,99898.00
2024-03-06T10:17:33.363Z,99902.00
2024-03-06T10:19:19.406Z,99894.00
2024-03-06T10:20:53.509Z,99904.00
2024-03-06T10:22:26.814Z,99901.00
2024-03-06T10:23:59.779Z,99894.00
2024-03-06T10:25:33.056Z,99900.00
2024-03-06T10:27:05.708Z,99900.00
2024-03-06T10:28:46.438Z,99905.00
2024-03-06T10:30:18.851Z,99904.00
2024-03-06T10:31:53.970Z,99898.00
2024-03-06T10:33:28.153Z,99897.00
2024-03-06T10:35:01.524Z,99912.00
2024-03-06T10:36:34.134Z,99906.00
2024-03-06T10:38:09.665Z,99909.00
2024-03-06T10:39:45.729Z,99907.00
2024-03-06T10:41:26.188Z,99906.00
2024-03-06T10:42:59.583Z,99909.00
2024-03-06T10:44:38.077Z,99902.00
2024-03-06T10:46:14.545Z,99905.00
2024-03-06T10:47:49.820Z,99903.00
2024-03-06T10:49:24.860Z,99907.00
2024-03-06T10:51:00.810Z,99910.00
2024-03-06T10:52:34.431Z,99898.00
2024-03-06T10:54:09.782Z,99907.00
2024-03-06T10:55:45.404Z,99902.00
2024-03-06T10:57:20.211Z,99908.00
2024-03-06T10:58:54.842Z,99897.00
2024-03-06T11:00:30.521Z,99909.00
2024-03-06T11:02:04.363Z,99903.00
2024-03-06T11:03:39.880Z,99911.00
2024-03-06T11:05:12.367Z,99910.00
2024-03-06T11:06:46.049Z,99907.00
2024-03-06T11:08:18.980Z,99908.00
2024-03-06T11:09:53.292Z,99908.00
2024-03-06T11:11:26.501Z,99911.00
2024-03-06T11:12:59.870Z,99912.00
2024-03-06T11:14:33.000Z,99908.00
2024-03-06T11:16:10.473Z,99904.00
2024-03-06T11:17:43.185Z,99913.00
2024-03-06T11:19:16.578Z,99921.00
2024-03-06T11:20:49.582Z,99910.00
2024-03-06T11:23:12.233Z,99924.00
2024-03-06T11:24:45.807Z,99917.00
2024-03-06T11:26:21.122Z,99923.00
2024-03-06T11:28:14.311Z,99924.00
2024-03-06T11:30:12.282Z,99905.00
2024-03-06T11:32:09.795Z,99910.00
2024-03-06T11:33:44.547Z,99915.00
2024-03-06T11:35:21.017Z,99918.00
2024-03-06T11:36:57.713Z,99923.00
2024-03-06T11:38:31.674Z,99923.00
2024-03-06T11:40:09.528Z,99930.00
2024-03-06T11:41:50.047Z,99924.00
2024-03-06T11:43:27.960Z,99924.00
2024-03-06T11:45:00.744Z,99936.00
2024-03-06T11:46:45.072Z,99933.00
2024-03-06T11:48:22.825Z,99930.00
2024-03-06T11:49:56.597Z,99933.00
2024-03-06T11:51:30.439Z,99931.00
2024-03-06T11:53:04.203Z,99933.00
2024-03-06T11:54:37.664Z,99926.00
2024-03-06T11:56:10.218Z,99924.00
2024-03-06T11:57:43.480Z,99929.00
2024-03-06T11:59:15.842Z,99923.00
2024-03-06T12:00:49.957Z,99932.00
2024-03-06T12:02:23.653Z,99929.00
2024-03-06T12:04:00.579Z,99928.00
2024-03-06T12:05:35.282Z,99931.00
2024-03-06T12:07:08.080Z,99936.00
2024-03-06T12:08:42.026Z,99930.00
2024-03-06T12:10:14.450Z,99920.00
2024-03-06T12:11:47.673Z,99932.00
2024-03-06T12:13:21.976Z,99928.00
2024-03-06T12:15:01.460Z,99928.00
2024-03-06T12:16:33.877Z,99927.00
2024-03-06T12:18:07.539Z,99924.00
2024-03-06T12:19:45.485Z,99935.00
2024-03-06T12:21:18.434Z,99938.00
2024-03-06T12:22:52.816Z,99937.00
2024-03-06T12:24:27.786Z,99933.00
2024-03-06T12:26:10.125Z,99928.00
2024-03-06T12:27:42.842Z,99934.00
2024-03-06T12:29:21.471Z,99927.00
2024-03-06T12:30:53.793Z,99934.00
2024-03-06T12:32:30.635Z,99935.00
2024-03-06T12:34:05.071Z,99931.00
2024-03-06T12:35:40.291Z,99936.00
2024-03-06T12:37:13.047Z,99932.00
2024-03-06T12:38:46.367Z,99933.00
2024-03-06T12:40:18.736Z,99931.00
2024-03-06T12:41:52.769Z,99925.00
2024-03-06T12:43:25.506Z,99931.00
2024-03-06T12:44:59.076Z,99928.00
2024-03-06T12:46:31.259Z,99926.00
2024-03-06T12:48:07.150Z,99928.00
2024-03-06T12:49:39.369Z,99932.00
2024-03-06T12:51:14.302Z,99919.00
2024-03-06T12:52:47.545Z,99922.00
2024-03-06T12:54:21.857Z,99921.00
2024-03-06T12:55:54.475Z,99924.00
2024-03-06T12:57:29.057Z,99925.00
2024-03-06T12:59:01.505Z,99922.00
2024-03-06T13:00:34.712Z,99923.00
2024-03-06T13:02:08.074Z,99916.00
2024-03-06T13:03:41.546Z,99912.00
2024-03-06T13:05:14.555Z,99914.00
2024-03-06T13:06:49.243Z,99923.00
2024-03-06T13:08:21.484Z,99919.00
2024-03-06T13:09:54.695Z,99919.00
2024-03-06T13:11:27.999Z,99920.00
2024-03-06T13:13:00.417Z,99919.00
2024-03-06T13:14:33.933Z,99916.00
2024-03-06T13:16:09.532Z,99921.00
2024-03-06T13:17:43.418Z,99923.00
2024-03-06T13:19:16.884Z,99922.00
2024-03-06T13:20:50.006Z,99929.00
2024-03-06T13:22:24.871Z,99927.00
2024-03-06T13:23:57.988Z,99929.00
2024-03-06T13:25:30.169Z,99924.00
2024-03-06T13:27:04.345Z,99926.00
2024-03-06T13:28:37.539Z,99928.00
2024-03-06T13:30:11.029Z,99917.00
2024-03-06T13:31:44.480Z,99931.00
2024-03-06T13:33:16.762Z,99928.00
2024-03-06T13:34:50.035Z,99928.00
2024-03-06T13:36:23.452Z,99930.00
2024-03-06T13:37:57.425Z,99934.00
2024-03-06T13:39:30.813Z,99929.00
2024-03-06T13:41:04.704Z,99930.00
2024-03-06T13:42:36.949Z,99934.00
2024-03-06T13:44:10.449Z,99935.00
2024-03-06T13:45:52.199Z,99940.00
2024-03-06T13:47:25.636Z,99937.00
2024-03-06T13:48:58.820Z,99928.00
2024-03-06T13:50:31.717Z,99934.00
2024-03-06T13:52:06.735Z,99937.00
2024-03-06T13:53:42.195Z,99942.00
2024-03-06T13:55:14.677Z,99944.00
2024-03-06T13:56:48.189Z,99940.00
2024-03-06T13:58:21.964Z,99943.00
2024-03-06T13:59:54.350Z,99943.00
2024-03-06T14:01:28.068Z,99946.00
2024-03-06T14:03:00.367Z,99953.00
2024-03-06T14:04:33.717Z,99949.00
2024-03-06T14:06:08.594Z,99947.00
2024-03-06T14:07:42.478Z,99945.00
2024-03-06T14:09:34.636Z,99951.00
2024-03-06T14:11:08.670Z,99949.00
2024-03-06T14:12:41.264Z,99948.00
2024-03-06T14:14:14.422Z,99946.00
2024-03-06T14:15:48.720Z,99943.00
2024-03-06T14:17:22.004Z,99952.00
2024-03-06T14:18:54.531Z,99945.00
2024-03-06T14:20:27.676Z,99954.00
2024-03-06T14:22:03.474Z,99955.00
2024-03-06T14:23:39.069Z,99950.00
2024-03-06T14:25:13.086Z,99951.00
2024-03-06T14:26:46.382Z,99952.00
2024-03-06T14:28:18.912Z,99949.00
2024-03-06T14:29:52.238Z,99954.00
2024-03-06T14:31:25.154Z,99949.00
2024-03-06T14:32:58.504Z,99952.00
2024-03-06T14:34:31.023Z,99942.00
2024-03-06T14:36:04.713Z,99964.00
2024-03-06T14:37:39.702Z,99948.00
2024-03-06T14:39:12.306Z,99946.00
2024-03-06T14:40:47.771Z,99944.00
2024-03-06T14:42:20.127Z,99948.00
2024-03-06T14:43:54.917Z,99948.00
2024-03-06T14:45:27.040Z,99953.00
2024-03-06T14:47:00.766Z,99946.00
2024-03-06T14:48:33.187Z,99954.00
2024-03-06T14:50:08.365Z,99950.00
2024-03-06T14:51:40.862Z,99947.00
2024-03-06T14:53:14.637Z,99947.00
2024-03-06T14:54:48.662Z,99955.00
2024-03-06T14:56:23.615Z,99946.00
2024-03-06T14:57:55.831Z,99946.00
2024-03-06T14:59:29.485Z,99952.00
2024-03-06T15:01:02.096Z,99957.00
2024-03-06T15:02:36.222Z,99954.00
2024-03-06T15:04:08.471Z,99956.00
2024-03-06T15:05:42.285Z,99953.00
2024-03-06T15:07:14.792Z,99952.00
2024-03-06T15:08:49.201Z,99956.00
2024-03-06T15:10:21.981Z,99952.00
2024-03-06T15:11:58.212Z,99957.00
2024-03-06T15:13:30.758Z,99963.00
2024-03-06T15:15:07.526Z,99956.00
2024-03-06T15:16:40.952Z,99964.00
2024-03-06T15:18:14.611Z,99957.00
2024-03-06T15:19:48.038Z,99967.00
2024-03-06T15:21:20.482Z,99967.00
2024-03-06T15:22:54.056Z,99976.00
2024-03-06T15:24:26.534Z,99965.00
2024-03-06T15:25:59.615Z,99968.00
2024-03-06T15:27:33.469Z,99977.00
2024-03-06T15:29:07.547Z,99975.00
2024-03-06T15:30:41.152Z,99969.00
2024-03-06T15:32:14.497Z,99972.00
2024-03-06T15:33:48.423Z,99973.00
2024-03-06T15:35:21.931Z,99979.00
2024-03-06T15:36:56.640Z,99972.00
2024-03-06T15:38:30.878Z,99973.00
2024-03-06T15:40:04.688Z,99974.00
2024-03-06T15:41:38.102Z,99978.00
2024-03-06T15:43:11.849Z,99980.00
2024-03-06T15:44:45.147Z,99976.00
2024-03-06T15:46:18.024Z,99979.00
2024-03-06T15:47:51.445Z,99978.00
2024-03-06T15:49:26.828Z,99978.00
2024-03-06T15:51:00.551Z,99986.00
2024-03-06T15:52:33.916Z,99985.00
2024-03-06T15:54:06.151Z,99987.00
2024-03-06T15:55:39.439Z,99984.00
2024-03-06T15:57:12.779Z,99977.00
2024-03-06T15:58:47.272Z,99980.00
2024-03-06T16:00:20.015Z,99985.00
2024-03-06T16:01:53.225Z,99990.00
2024-03-06T16:03:25.417Z,99992.00
2024-03-06T16:04:58.790Z,99987.00
2024-03-06T16:06:39.733Z,99988.00
2024-03-06T16:08:14.223Z,99981.00
2024-03-06T16:09:46.522Z,99986.00
2024-03-06T16:11:20.084Z,99999.00
2024-03-06T16:12:55.704Z,99995.00
2024-03-06T16:14:32.460Z,100002.00
2024-03-06T16:16:05.819Z,99995.00
2024-03-06T16:17:39.540Z,99999.00
2024-03-06T16:19:12.301Z,100002.00
2024-03-06T16:20:45.999Z,99994.00
2024-03-06T16:22:18.622Z,100007.00
2024-03-06T16:23:52.792Z,99999.00
2024-03-06T16:25:25.671Z,100011.00
2024-03-06T16:26:59.129Z,100009.00
2024-03-06T16:28:32.750Z,100007.00
2024-03-06T16:30:10.508Z,100006.00
2024-03-06T16:31:42.905Z,100000.00
2024-03-06T16:33:16.506Z,99999.00
2024-03-06T16:34:48.750Z,100011.00
2024-03-06T16:36:22.435Z,100007.00
2024-03-06T16:37:56.762Z,100013.00
2024-03-06T16:39:30.169Z,100008.00
2024-03-06T16:41:02.440Z,100008.00
2024-03-06T16:42:35.609Z,100014.00
2024-03-06T16:44:08.977Z,100014.00
2024-03-06T16:45:46.212Z,100021.00
2024-03-06T16:47:25.838Z,100006.00
2024-03-06T16:49:07.081Z,100018.00
2024-03-06T16:50:47.450Z,100013.00
2024-03-06T16:52:22.914Z,100023.00
2024-03-06T16:53:56.872Z,100026.00
2024-03-06T16:55:31.698Z,100037.00
2024-03-06T16:57:04.808Z,100030.00
2024-03-06T16:58:38.401Z,100030.00
2024-03-06T17:00:13.375Z,100029.00
2024-03-06T17:01:47.103Z,100037.00
2024-03-06T17:03:20.548Z,100044.00
2024-03-06T17:04:53.606Z,100047.00
2024-03-06T17:06:26.741Z,100047.00
2024-03-06T17:08:00.462Z,100045.00
2024-03-06T17:09:33.909Z,100051.00
2024-03-06T17:11:09.203Z,100059.00
2024-03-06T17:12:42.709Z,100052.00
2024-03-06T17:14:15.419Z,100047.00
2024-03-06T17:15:48.582Z,100057.00
2024-03-06T17:17:22.483Z,100055.00
2024-03-06T17:18:55.659Z,100056.00
2024-03-06T17:20:30.464Z,100055.00
2024-03-06T17:22:04.225Z,100059.00
2024-03-06T17:23:37.407Z,100053.00
2024-03-06T17:25:10.713Z,100058.00
2024-03-06T17:26:43.930Z,100062.00
2024-03-06T17:28:18.311Z,100063.00
2024-03-06T17:29:50.846Z,100066.00
2024-03-06T17:31:23.963Z,100066.00
2024-03-06T17:32:58.120Z,100074.00
2024-03-06T17:34:33.536Z,100067.00
2024-03-06T17:36:07.066Z,100069.00
2024-03-06T17:37:40.432Z,100081.00
2024-03-06T17:39:13.335Z,100070.00
2024-03-06T17:40:47.357Z,100079.00
2024-03-06T17:42:19.782Z,100069.00
2024-03-06T17:43:52.964Z,100088.00
2024-03-06T17:45:28.235Z,100087.00
2024-03-06T17:47:01.474Z,100085.00
2024-03-06T17:48:35.160Z,100082.00
2024-03-06T17:50:09.661Z,100085.00
2024-03-06T17:51:42.934Z,100092.00
2024-03-06T17:53:16.159Z,100095.00
2024-03-06T17:54:48.399Z,100090.00
2024-03-06T17:56:21.622Z,100099.00
2024-03-06T17:57:54.086Z,100096.00
2024-03-06T17:59:27.592Z,100103.00
2024-03-06T18:01:01.330Z,100085.00
2024-03-06T18:02:34.575Z,100099.00
2024-03-06T18:04:08.551Z,100099.00
2024-03-06T18:05:41.742Z,100102.00
2024-03-06T18:07:13.984Z,100105.00
2024-03-06T18:08:47.988Z,100101.00
2024-03-06T18:10:21.269Z,100108.00
2024-03-06T18:11:54.683Z,100105.00
2024-03-06T18:13:28.509Z,100104.00
2024-03-06T18:15:02.008Z,100107.00
2024-03-06T18:16:35.408Z,100101.00
2024-03-06T18:18:07.876Z,100107.00
2024-03-06T18:19:42.424Z,100109.00
2024-03-06T18:21:14.567Z,100105.00
2024-03-06T18:22:48.935Z,100111.00
2024-03-06T18:24:21.334Z,100122.00
2024-03-06T18:25:54.677Z,100117.00
2024-03-06T18:27:26.842Z,100112.00
2024-03-06T18:29:01.340Z,100113.00
2024-03-06T18:30:34.673Z,100108.00
2024-03-06T18:32:09.137Z,100118.00
2024-03-06T18:33:42.712Z,100110.00
2024-03-06T18:35:19.143Z,100113.00
2024-03-06T18:36:52.898Z,100118.00
2024-03-06T18:38:25.389Z,100114.00
2024-03-06T18:39:59.099Z,100112.00
2024-03-06T18:41:31.416Z,100122.00
2024-03-06T18:43:06.152Z,100115.00
2024-03-06T18:44:39.774Z,100123.00
2024-03-06T18:46:13.538Z,100125.00
2024-03-06T18:47:47.423Z,100108.00
2024-03-06T18:49:23.283Z,100115.00
2024-03-06T18:50:58.148Z,100123.00
2024-03-06T18:52:30.649Z,100118.00
2024-03-06T18:54:04.921Z,100126.00
2024-03-06T18:55:38.365Z,100123.00
2024-03-06T18:57:11.851Z,100121.00
2024-03-06T18:58:44.397Z,100125.00
2024-03-06T19:00:19.090Z,100127.00
2024-03-06T19:01:51.532Z,100132.00
2024-03-06T19:03:24.623Z,100129.00
2024-03-06T19:04:56.849Z,100131.00
2024-03-06T19:06:31.676Z,100126.00
2024-03-06T19:08:04.686Z,100133.00
2024-03-06T19:09:38.174Z,100137.00
2024-03-06T19:11:10.706Z,100137.00
2024-03-06T19:12:44.696Z,100137.00
2024-03-06T19:14:17.287Z,100132.00
2024-03-06T19:15:50.678Z,100138.00